sensor_id;sensor_type;location;lat;lon;timestamp;P1;durP1;ratioP1;P2;durP2;ratioP2
12369;SDS011;6249;52.128;9.986;2023-03-21T00:01:39;27.00;;;15.43;;
12369;SDS011;6249;52.128;9.986;2023-03-21T00:04:59;26.60;;;15.87;;
12369;SDS011;6249;52.128;9.986;2023-03-21T00:08:21;30.10;;;15.60;;
12369;SDS011;6249;52.128;9.986;2023-03-21T00:11:43;26.33;;;16.07;;
12369;SDS011;6249;52.128;9.986;2023-03-21T00:15:09;28.20;;;16.07;;
12369;SDS011;6249;52.128;9.986;2023-03-21T00:18:31;27.90;;;16.30;;
12369;SDS011;6249;52.128;9.986;2023-03-21T00:21:55;24.10;;;14.13;;
12369;SDS011;6249;52.128;9.986;2023-03-21T00:25:21;29.27;;;15.70;;
12369;SDS011;6249;52.128;9.986;2023-03-21T00:28:42;32.27;;;16.53;;
12369;SDS011;6249;52.128;9.986;2023-03-21T00:32:03;23.60;;;15.77;;
12369;SDS011;6249;52.128;9.986;2023-03-21T00:35:24;24.30;;;15.47;;
12369;SDS011;6249;52.128;9.986;2023-03-21T00:38:45;26.43;;;16.17;;
12369;SDS011;6249;52.128;9.986;2023-03-21T00:42:06;23.60;;;14.90;;
12369;SDS011;6249;52.128;9.986;2023-03-21T00:45:26;25.80;;;15.63;;
12369;SDS011;6249;52.128;9.986;2023-03-21T00:48:47;24.37;;;15.07;;
12369;SDS011;6249;52.128;9.986;2023-03-21T00:52:08;25.07;;;15.87;;
12369;SDS011;6249;52.128;9.986;2023-03-21T00:55:29;31.07;;;14.80;;
12369;SDS011;6249;52.128;9.986;2023-03-21T00:58:55;25.93;;;15.00;;
12369;SDS011;6249;52.128;9.986;2023-03-21T01:02:18;22.70;;;14.53;;
12369;SDS011;6249;52.128;9.986;2023-03-21T01:05:43;27.30;;;15.60;;
12369;SDS011;6249;52.128;9.986;2023-03-21T01:09:24;24.27;;;14.97;;
12369;SDS011;6249;52.128;9.986;2023-03-21T01:12:45;29.63;;;15.53;;
12369;SDS011;6249;52.128;9.986;2023-03-21T01:16:06;25.07;;;14.13;;
12369;SDS011;6249;52.128;9.986;2023-03-21T01:19:28;27.47;;;15.77;;
12369;SDS011;6249;52.128;9.986;2023-03-21T01:22:51;30.03;;;15.00;;
12369;SDS011;6249;52.128;9.986;2023-03-21T01:26:13;25.80;;;14.27;;
12369;SDS011;6249;52.128;9.986;2023-03-21T01:29:36;21.43;;;13.90;;
12369;SDS011;6249;52.128;9.986;2023-03-21T01:32:59;32.10;;;16.20;;
12369;SDS011;6249;52.128;9.986;2023-03-21T01:36:21;25.27;;;14.63;;
12369;SDS011;6249;52.128;9.986;2023-03-21T01:39:45;27.07;;;15.77;;
12369;SDS011;6249;52.128;9.986;2023-03-21T01:50:12;24.77;;;13.33;;
12369;SDS011;6249;52.128;9.986;2023-03-21T01:53:33;26.57;;;16.77;;
12369;SDS011;6249;52.128;9.986;2023-03-21T01:56:57;26.80;;;15.53;;
12369;SDS011;6249;52.128;9.986;2023-03-21T02:00:27;29.10;;;16.37;;
12369;SDS011;6249;52.128;9.986;2023-03-21T02:03:48;30.97;;;16.73;;
12369;SDS011;6249;52.128;9.986;2023-03-21T02:07:12;31.43;;;17.20;;
12369;SDS011;6249;52.128;9.986;2023-03-21T02:10:37;32.30;;;14.97;;
12369;SDS011;6249;52.128;9.986;2023-03-21T02:14:02;28.37;;;15.13;;
12369;SDS011;6249;52.128;9.986;2023-03-21T02:18:01;28.10;;;16.30;;
12369;SDS011;6249;52.128;9.986;2023-03-21T02:36:15;61.33;;;18.63;;
12369;SDS011;6249;52.128;9.986;2023-03-21T02:47:15;30.17;;;18.67;;
12369;SDS011;6249;52.128;9.986;2023-03-21T02:50:43;34.53;;;18.73;;
12369;SDS011;6249;52.128;9.986;2023-03-21T02:54:13;32.30;;;17.50;;
12369;SDS011;6249;52.128;9.986;2023-03-21T02:57:37;36.63;;;18.20;;
12369;SDS011;6249;52.128;9.986;2023-03-21T03:00:58;36.87;;;18.43;;
12369;SDS011;6249;52.128;9.986;2023-03-21T03:04:25;37.33;;;18.10;;
12369;SDS011;6249;52.128;9.986;2023-03-21T03:08:11;38.03;;;18.07;;
12369;SDS011;6249;52.128;9.986;2023-03-21T03:11:47;36.03;;;18.80;;
12369;SDS011;6249;52.128;9.986;2023-03-21T03:15:21;33.43;;;18.97;;
12369;SDS011;6249;52.128;9.986;2023-03-21T03:19:07;35.20;;;19.10;;
12369;SDS011;6249;52.128;9.986;2023-03-21T03:22:45;32.20;;;17.33;;
12369;SDS011;6249;52.128;9.986;2023-03-21T03:26:11;39.70;;;18.87;;
12369;SDS011;6249;52.128;9.986;2023-03-21T03:29:56;46.80;;;19.40;;
12369;SDS011;6249;52.128;9.986;2023-03-21T03:33:19;35.63;;;19.13;;
12369;SDS011;6249;52.128;9.986;2023-03-21T03:36:43;34.53;;;17.37;;
12369;SDS011;6249;52.128;9.986;2023-03-21T03:40:12;31.60;;;17.53;;
12369;SDS011;6249;52.128;9.986;2023-03-21T03:43:42;30.53;;;18.27;;
12369;SDS011;6249;52.128;9.986;2023-03-21T03:47:11;32.57;;;18.23;;
12369;SDS011;6249;52.128;9.986;2023-03-21T03:50:41;41.37;;;20.67;;
12369;SDS011;6249;52.128;9.986;2023-03-21T03:54:18;36.20;;;19.93;;
12369;SDS011;6249;52.128;9.986;2023-03-21T03:57:43;44.53;;;21.30;;
12369;SDS011;6249;52.128;9.986;2023-03-21T04:01:04;40.10;;;23.17;;
12369;SDS011;6249;52.128;9.986;2023-03-21T04:04:27;46.27;;;24.17;;
12369;SDS011;6249;52.128;9.986;2023-03-21T04:07:51;47.80;;;24.70;;
12369;SDS011;6249;52.128;9.986;2023-03-21T04:11:14;47.60;;;26.30;;
12369;SDS011;6249;52.128;9.986;2023-03-21T04:14:37;44.50;;;22.90;;
12369;SDS011;6249;52.128;9.986;2023-03-21T04:17:58;34.20;;;20.00;;
12369;SDS011;6249;52.128;9.986;2023-03-21T04:21:19;33.33;;;17.30;;
12369;SDS011;6249;52.128;9.986;2023-03-21T04:24:40;37.33;;;18.80;;
12369;SDS011;6249;52.128;9.986;2023-03-21T04:28:03;38.50;;;20.00;;
12369;SDS011;6249;52.128;9.986;2023-03-21T04:31:27;44.80;;;19.53;;
12369;SDS011;6249;52.128;9.986;2023-03-21T04:34:55;40.53;;;21.03;;
12369;SDS011;6249;52.128;9.986;2023-03-21T04:38:15;36.83;;;20.07;;
12369;SDS011;6249;52.128;9.986;2023-03-21T04:41:37;33.00;;;18.30;;
12369;SDS011;6249;52.128;9.986;2023-03-21T04:45:01;48.50;;;22.23;;
12369;SDS011;6249;52.128;9.986;2023-03-21T04:48:22;39.63;;;23.37;;
12369;SDS011;6249;52.128;9.986;2023-03-21T04:51:43;39.73;;;22.57;;
12369;SDS011;6249;52.128;9.986;2023-03-21T04:55:04;36.03;;;20.57;;
12369;SDS011;6249;52.128;9.986;2023-03-21T04:58:28;40.30;;;19.90;;
12369;SDS011;6249;52.128;9.986;2023-03-21T05:01:49;38.90;;;23.10;;
12369;SDS011;6249;52.128;9.986;2023-03-21T05:05:13;41.50;;;21.20;;
12369;SDS011;6249;52.128;9.986;2023-03-21T05:08:34;40.00;;;20.07;;
12369;SDS011;6249;52.128;9.986;2023-03-21T05:11:55;35.50;;;19.90;;
12369;SDS011;6249;52.128;9.986;2023-03-21T05:15:18;39.40;;;19.27;;
12369;SDS011;6249;52.128;9.986;2023-03-21T05:18:43;40.10;;;19.00;;
12369;SDS011;6249;52.128;9.986;2023-03-21T05:22:04;36.33;;;19.23;;
12369;SDS011;6249;52.128;9.986;2023-03-21T05:25:27;38.73;;;18.87;;
12369;SDS011;6249;52.128;9.986;2023-03-21T05:28:54;32.03;;;16.87;;
12369;SDS011;6249;52.128;9.986;2023-03-21T05:32:15;38.30;;;15.87;;
12369;SDS011;6249;52.128;9.986;2023-03-21T05:35:41;32.63;;;16.43;;
12369;SDS011;6249;52.128;9.986;2023-03-21T05:39:02;35.07;;;15.23;;
12369;SDS011;6249;52.128;9.986;2023-03-21T05:42:23;24.70;;;14.33;;
12369;SDS011;6249;52.128;9.986;2023-03-21T05:45:51;30.23;;;14.70;;
12369;SDS011;6249;52.128;9.986;2023-03-21T05:49:11;27.03;;;14.40;;
12369;SDS011;6249;52.128;9.986;2023-03-21T05:52:34;31.03;;;14.40;;
12369;SDS011;6249;52.128;9.986;2023-03-21T05:55:57;24.20;;;13.33;;
12369;SDS011;6249;52.128;9.986;2023-03-21T05:59:20;30.40;;;14.67;;
12369;SDS011;6249;52.128;9.986;2023-03-21T06:02:40;27.23;;;13.40;;
12369;SDS011;6249;52.128;9.986;2023-03-21T06:06:01;24.83;;;13.30;;
12369;SDS011;6249;52.128;9.986;2023-03-21T06:09:24;29.90;;;13.27;;
12369;SDS011;6249;52.128;9.986;2023-03-21T06:12:45;32.20;;;12.30;;
12369;SDS011;6249;52.128;9.986;2023-03-21T06:16:08;26.30;;;12.27;;
12369;SDS011;6249;52.128;9.986;2023-03-21T06:19:28;28.37;;;13.50;;
12369;SDS011;6249;52.128;9.986;2023-03-21T06:22:51;27.67;;;13.07;;
12369;SDS011;6249;52.128;9.986;2023-03-21T06:26:12;27.17;;;14.07;;
12369;SDS011;6249;52.128;9.986;2023-03-21T06:29:33;24.00;;;11.83;;
12369;SDS011;6249;52.128;9.986;2023-03-21T06:32:53;27.70;;;12.63;;
12369;SDS011;6249;52.128;9.986;2023-03-21T06:36:14;19.27;;;11.90;;
12369;SDS011;6249;52.128;9.986;2023-03-21T06:39:38;28.13;;;13.20;;
12369;SDS011;6249;52.128;9.986;2023-03-21T06:42:58;30.57;;;12.37;;
12369;SDS011;6249;52.128;9.986;2023-03-21T06:46:24;22.47;;;11.20;;
12369;SDS011;6249;52.128;9.986;2023-03-21T06:49:45;22.80;;;11.17;;
12369;SDS011;6249;52.128;9.986;2023-03-21T06:53:08;28.20;;;11.60;;
12369;SDS011;6249;52.128;9.986;2023-03-21T06:56:28;23.77;;;12.30;;
12369;SDS011;6249;52.128;9.986;2023-03-21T06:59:49;19.17;;;10.83;;
12369;SDS011;6249;52.128;9.986;2023-03-21T07:03:10;23.20;;;11.43;;
12369;SDS011;6249;52.128;9.986;2023-03-21T07:06:33;24.77;;;11.73;;
12369;SDS011;6249;52.128;9.986;2023-03-21T07:09:55;22.53;;;11.40;;
12369;SDS011;6249;52.128;9.986;2023-03-21T07:13:15;26.50;;;11.43;;
12369;SDS011;6249;52.128;9.986;2023-03-21T07:16:36;27.97;;;11.33;;
12369;SDS011;6249;52.128;9.986;2023-03-21T07:19:56;26.30;;;11.20;;
12369;SDS011;6249;52.128;9.986;2023-03-21T07:23:18;24.23;;;11.50;;
12369;SDS011;6249;52.128;9.986;2023-03-21T07:26:40;24.77;;;11.50;;
12369;SDS011;6249;52.128;9.986;2023-03-21T07:30:02;31.30;;;10.60;;
12369;SDS011;6249;52.128;9.986;2023-03-21T07:33:24;27.03;;;10.93;;
12369;SDS011;6249;52.128;9.986;2023-03-21T07:36:45;28.50;;;10.63;;
12369;SDS011;6249;52.128;9.986;2023-03-21T07:40:06;24.57;;;10.87;;
12369;SDS011;6249;52.128;9.986;2023-03-21T07:43:32;28.50;;;11.20;;
12369;SDS011;6249;52.128;9.986;2023-03-21T07:46:52;25.03;;;9.87;;
12369;SDS011;6249;52.128;9.986;2023-03-21T07:50:15;22.27;;;11.10;;
12369;SDS011;6249;52.128;9.986;2023-03-21T07:53:36;24.60;;;10.17;;
12369;SDS011;6249;52.128;9.986;2023-03-21T07:56:57;28.53;;;11.70;;
12369;SDS011;6249;52.128;9.986;2023-03-21T08:00:20;21.50;;;10.47;;
12369;SDS011;6249;52.128;9.986;2023-03-21T08:03:46;29.03;;;10.23;;
12369;SDS011;6249;52.128;9.986;2023-03-21T08:07:07;28.17;;;10.67;;
12369;SDS011;6249;52.128;9.986;2023-03-21T08:10:30;25.33;;;10.90;;
12369;SDS011;6249;52.128;9.986;2023-03-21T08:13:51;31.17;;;12.03;;
12369;SDS011;6249;52.128;9.986;2023-03-21T08:17:15;21.97;;;10.30;;
12369;SDS011;6249;52.128;9.986;2023-03-21T08:20:35;24.43;;;11.03;;
12369;SDS011;6249;52.128;9.986;2023-03-21T08:23:59;27.00;;;9.80;;
12369;SDS011;6249;52.128;9.986;2023-03-21T08:27:22;20.17;;;10.57;;
12369;SDS011;6249;52.128;9.986;2023-03-21T08:30:42;24.57;;;11.17;;
12369;SDS011;6249;52.128;9.986;2023-03-21T08:34:05;22.27;;;9.87;;
12369;SDS011;6249;52.128;9.986;2023-03-21T08:37:26;23.50;;;10.40;;
12369;SDS011;6249;52.128;9.986;2023-03-21T08:40:48;20.90;;;10.87;;
12369;SDS011;6249;52.128;9.986;2023-03-21T08:44:09;19.97;;;10.70;;
12369;SDS011;6249;52.128;9.986;2023-03-21T08:47:30;30.20;;;10.97;;
12369;SDS011;6249;52.128;9.986;2023-03-21T08:50:51;19.87;;;10.73;;
12369;SDS011;6249;52.128;9.986;2023-03-21T08:54:20;33.83;;;11.23;;
12369;SDS011;6249;52.128;9.986;2023-03-21T08:57:44;26.53;;;11.50;;
12369;SDS011;6249;52.128;9.986;2023-03-21T09:01:05;19.43;;;10.40;;
12369;SDS011;6249;52.128;9.986;2023-03-21T09:04:30;27.60;;;10.20;;
12369;SDS011;6249;52.128;9.986;2023-03-21T09:07:53;29.53;;;10.67;;
12369;SDS011;6249;52.128;9.986;2023-03-21T09:11:16;27.03;;;11.60;;
12369;SDS011;6249;52.128;9.986;2023-03-21T09:14:39;30.00;;;11.03;;
12369;SDS011;6249;52.128;9.986;2023-03-21T09:18:00;28.80;;;11.30;;
12369;SDS011;6249;52.128;9.986;2023-03-21T09:21:32;28.50;;;10.27;;
12369;SDS011;6249;52.128;9.986;2023-03-21T09:24:52;21.87;;;10.07;;
12369;SDS011;6249;52.128;9.986;2023-03-21T09:28:16;23.87;;;9.17;;
12369;SDS011;6249;52.128;9.986;2023-03-21T09:31:37;29.57;;;10.97;;
12369;SDS011;6249;52.128;9.986;2023-03-21T09:35:00;26.10;;;9.33;;
12369;SDS011;6249;52.128;9.986;2023-03-21T09:38:22;26.67;;;10.20;;
12369;SDS011;6249;52.128;9.986;2023-03-21T09:41:56;21.63;;;10.03;;
12369;SDS011;6249;52.128;9.986;2023-03-21T09:49:13;21.50;;;9.73;;
12369;SDS011;6249;52.128;9.986;2023-03-21T09:52:45;21.93;;;10.13;;
12369;SDS011;6249;52.128;9.986;2023-03-21T09:56:12;23.77;;;9.03;;
12369;SDS011;6249;52.128;9.986;2023-03-21T09:59:36;23.87;;;9.87;;
12369;SDS011;6249;52.128;9.986;2023-03-21T10:03:03;26.03;;;9.47;;
12369;SDS011;6249;52.128;9.986;2023-03-21T10:06:43;25.90;;;9.63;;
12369;SDS011;6249;52.128;9.986;2023-03-21T10:10:14;22.13;;;9.93;;
12369;SDS011;6249;52.128;9.986;2023-03-21T10:14:11;27.60;;;9.47;;
12369;SDS011;6249;52.128;9.986;2023-03-21T10:17:36;19.60;;;9.03;;
12369;SDS011;6249;52.128;9.986;2023-03-21T10:21:02;20.50;;;9.57;;
12369;SDS011;6249;52.128;9.986;2023-03-21T10:24:27;22.70;;;9.00;;
12369;SDS011;6249;52.128;9.986;2023-03-21T10:27:54;22.23;;;9.60;;
12369;SDS011;6249;52.128;9.986;2023-03-21T10:31:17;22.33;;;9.20;;
12369;SDS011;6249;52.128;9.986;2023-03-21T10:38:05;20.67;;;8.90;;
12369;SDS011;6249;52.128;9.986;2023-03-21T10:41:32;27.20;;;10.03;;
12369;SDS011;6249;52.128;9.986;2023-03-21T10:44:54;23.07;;;9.63;;
12369;SDS011;6249;52.128;9.986;2023-03-21T10:48:18;17.93;;;8.57;;
12369;SDS011;6249;52.128;9.986;2023-03-21T10:51:42;21.87;;;9.50;;
12369;SDS011;6249;52.128;9.986;2023-03-21T10:58:39;26.50;;;10.23;;
12369;SDS011;6249;52.128;9.986;2023-03-21T11:02:04;21.97;;;8.40;;
12369;SDS011;6249;52.128;9.986;2023-03-21T11:05:26;19.63;;;7.93;;
12369;SDS011;6249;52.128;9.986;2023-03-21T11:08:58;21.80;;;7.10;;
12369;SDS011;6249;52.128;9.986;2023-03-21T11:12:37;18.30;;;9.17;;
12369;SDS011;6249;52.128;9.986;2023-03-21T11:16:07;21.47;;;9.70;;
12369;SDS011;6249;52.128;9.986;2023-03-21T11:19:31;26.77;;;9.73;;
12369;SDS011;6249;52.128;9.986;2023-03-21T11:22:57;23.77;;;8.77;;
12369;SDS011;6249;52.128;9.986;2023-03-21T11:26:28;30.93;;;10.37;;
12369;SDS011;6249;52.128;9.986;2023-03-21T11:29:51;24.27;;;9.60;;
12369;SDS011;6249;52.128;9.986;2023-03-21T11:33:12;37.27;;;10.60;;
12369;SDS011;6249;52.128;9.986;2023-03-21T11:36:37;19.13;;;9.67;;
12369;SDS011;6249;52.128;9.986;2023-03-21T11:43:26;29.77;;;10.43;;
12369;SDS011;6249;52.128;9.986;2023-03-21T11:47:00;20.97;;;11.00;;
12369;SDS011;6249;52.128;9.986;2023-03-21T11:53:46;22.30;;;11.10;;
12369;SDS011;6249;52.128;9.986;2023-03-21T12:00:34;26.63;;;11.30;;
12369;SDS011;6249;52.128;9.986;2023-03-21T12:15:25;30.40;;;13.93;;
12369;SDS011;6249;52.128;9.986;2023-03-21T12:19:07;26.87;;;14.10;;
12369;SDS011;6249;52.128;9.986;2023-03-21T12:26:29;28.13;;;14.20;;
12369;SDS011;6249;52.128;9.986;2023-03-21T12:29:58;38.30;;;14.77;;
12369;SDS011;6249;52.128;9.986;2023-03-21T12:44:02;30.80;;;14.50;;
12369;SDS011;6249;52.128;9.986;2023-03-21T12:47:27;23.53;;;12.80;;
12369;SDS011;6249;52.128;9.986;2023-03-21T12:50:51;27.73;;;13.90;;
12369;SDS011;6249;52.128;9.986;2023-03-21T12:57:39;27.70;;;11.93;;
12369;SDS011;6249;52.128;9.986;2023-03-21T13:01:09;28.37;;;14.27;;
12369;SDS011;6249;52.128;9.986;2023-03-21T13:04:39;25.53;;;12.47;;
12369;SDS011;6249;52.128;9.986;2023-03-21T13:11:56;31.47;;;15.10;;
12369;SDS011;6249;52.128;9.986;2023-03-21T13:22:49;27.70;;;14.17;;
12369;SDS011;6249;52.128;9.986;2023-03-21T13:26:09;32.30;;;14.40;;
12369;SDS011;6249;52.128;9.986;2023-03-21T13:29:46;30.83;;;13.70;;
12369;SDS011;6249;52.128;9.986;2023-03-21T13:33:12;24.70;;;15.53;;
12369;SDS011;6249;52.128;9.986;2023-03-21T13:36:34;34.30;;;13.80;;
12369;SDS011;6249;52.128;9.986;2023-03-21T13:40:01;36.33;;;14.60;;
12369;SDS011;6249;52.128;9.986;2023-03-21T13:51:02;31.30;;;16.30;;
12369;SDS011;6249;52.128;9.986;2023-03-21T14:05:33;41.47;;;15.50;;
12369;SDS011;6249;52.128;9.986;2023-03-21T14:08:57;30.50;;;14.20;;
12369;SDS011;6249;52.128;9.986;2023-03-21T14:12:22;40.03;;;15.57;;
12369;SDS011;6249;52.128;9.986;2023-03-21T14:15:53;26.37;;;13.27;;
12369;SDS011;6249;52.128;9.986;2023-03-21T14:19:29;28.17;;;12.37;;
12369;SDS011;6249;52.128;9.986;2023-03-21T14:22:51;28.87;;;14.63;;
12369;SDS011;6249;52.128;9.986;2023-03-21T14:26:12;34.03;;;14.30;;
12369;SDS011;6249;52.128;9.986;2023-03-21T14:29:34;25.60;;;14.10;;
12369;SDS011;6249;52.128;9.986;2023-03-21T14:32:59;25.40;;;13.43;;
12369;SDS011;6249;52.128;9.986;2023-03-21T14:36:25;38.07;;;14.60;;
12369;SDS011;6249;52.128;9.986;2023-03-21T14:39:55;29.33;;;15.13;;
12369;SDS011;6249;52.128;9.986;2023-03-21T14:43:21;27.87;;;12.93;;
12369;SDS011;6249;52.128;9.986;2023-03-21T14:46:42;29.47;;;14.13;;
12369;SDS011;6249;52.128;9.986;2023-03-21T14:50:08;26.33;;;14.10;;
12369;SDS011;6249;52.128;9.986;2023-03-21T14:53:30;27.93;;;10.87;;
12369;SDS011;6249;52.128;9.986;2023-03-21T14:56:58;34.03;;;10.47;;
12369;SDS011;6249;52.128;9.986;2023-03-21T15:00:28;23.77;;;11.30;;
12369;SDS011;6249;52.128;9.986;2023-03-21T15:03:50;22.70;;;12.20;;
12369;SDS011;6249;52.128;9.986;2023-03-21T15:07:22;25.70;;;12.33;;
12369;SDS011;6249;52.128;9.986;2023-03-21T15:11:01;24.93;;;11.17;;
12369;SDS011;6249;52.128;9.986;2023-03-21T15:14:28;19.93;;;9.87;;
12369;SDS011;6249;52.128;9.986;2023-03-21T15:18:02;19.53;;;8.80;;
12369;SDS011;6249;52.128;9.986;2023-03-21T15:21:40;14.40;;;8.70;;
12369;SDS011;6249;52.128;9.986;2023-03-21T15:25:08;24.73;;;10.07;;
12369;SDS011;6249;52.128;9.986;2023-03-21T15:28:36;16.60;;;8.47;;
12369;SDS011;6249;52.128;9.986;2023-03-21T15:31:58;14.77;;;8.60;;
12369;SDS011;6249;52.128;9.986;2023-03-21T15:35:29;13.53;;;6.50;;
12369;SDS011;6249;52.128;9.986;2023-03-21T15:38:54;15.70;;;7.70;;
12369;SDS011;6249;52.128;9.986;2023-03-21T15:42:23;14.33;;;6.50;;
12369;SDS011;6249;52.128;9.986;2023-03-21T15:45:47;12.47;;;6.80;;
12369;SDS011;6249;52.128;9.986;2023-03-21T15:52:36;15.53;;;6.63;;
12369;SDS011;6249;52.128;9.986;2023-03-21T15:55:57;15.93;;;7.30;;
12369;SDS011;6249;52.128;9.986;2023-03-21T15:59:23;11.70;;;5.73;;
12369;SDS011;6249;52.128;9.986;2023-03-21T16:02:48;11.20;;;6.20;;
12369;SDS011;6249;52.128;9.986;2023-03-21T16:06:17;11.07;;;6.20;;
12369;SDS011;6249;52.128;9.986;2023-03-21T16:09:49;15.87;;;7.27;;
12369;SDS011;6249;52.128;9.986;2023-03-21T16:13:16;12.57;;;6.33;;
12369;SDS011;6249;52.128;9.986;2023-03-21T16:16:37;13.10;;;6.20;;
12369;SDS011;6249;52.128;9.986;2023-03-21T16:19:58;9.43;;;5.70;;
12369;SDS011;6249;52.128;9.986;2023-03-21T16:23:19;11.10;;;5.83;;
12369;SDS011;6249;52.128;9.986;2023-03-21T16:26:43;12.83;;;5.77;;
12369;SDS011;6249;52.128;9.986;2023-03-21T16:30:10;15.63;;;7.07;;
12369;SDS011;6249;52.128;9.986;2023-03-21T16:33:35;16.40;;;8.20;;
12369;SDS011;6249;52.128;9.986;2023-03-21T16:37:00;16.93;;;8.70;;
12369;SDS011;6249;52.128;9.986;2023-03-21T16:40:28;18.33;;;8.87;;
12369;SDS011;6249;52.128;9.986;2023-03-21T16:43:53;19.93;;;9.00;;
12369;SDS011;6249;52.128;9.986;2023-03-21T16:47:19;24.63;;;8.73;;
12369;SDS011;6249;52.128;9.986;2023-03-21T16:50:46;16.27;;;8.47;;
12369;SDS011;6249;52.128;9.986;2023-03-21T16:54:10;19.30;;;9.43;;
12369;SDS011;6249;52.128;9.986;2023-03-21T16:57:30;19.17;;;10.30;;
12369;SDS011;6249;52.128;9.986;2023-03-21T17:00:51;15.43;;;8.40;;
12369;SDS011;6249;52.128;9.986;2023-03-21T17:04:12;22.77;;;9.03;;
12369;SDS011;6249;52.128;9.986;2023-03-21T17:07:39;13.87;;;7.17;;
12369;SDS011;6249;52.128;9.986;2023-03-21T17:11:00;14.47;;;6.53;;
12369;SDS011;6249;52.128;9.986;2023-03-21T17:14:25;17.97;;;8.00;;
12369;SDS011;6249;52.128;9.986;2023-03-21T17:17:46;16.73;;;7.63;;
12369;SDS011;6249;52.128;9.986;2023-03-21T17:21:13;11.63;;;6.53;;
12369;SDS011;6249;52.128;9.986;2023-03-21T17:24:35;10.17;;;5.50;;
12369;SDS011;6249;52.128;9.986;2023-03-21T17:27:56;14.80;;;6.67;;
12369;SDS011;6249;52.128;9.986;2023-03-21T17:31:18;14.33;;;5.30;;
12369;SDS011;6249;52.128;9.986;2023-03-21T17:34:40;11.13;;;5.80;;
12369;SDS011;6249;52.128;9.986;2023-03-21T17:38:00;10.90;;;5.37;;
12369;SDS011;6249;52.128;9.986;2023-03-21T17:41:21;14.90;;;5.07;;
12369;SDS011;6249;52.128;9.986;2023-03-21T17:44:41;10.20;;;5.50;;
12369;SDS011;6249;52.128;9.986;2023-03-21T17:48:02;10.20;;;4.70;;
12369;SDS011;6249;52.128;9.986;2023-03-21T17:51:23;11.13;;;5.30;;
12369;SDS011;6249;52.128;9.986;2023-03-21T17:54:48;9.37;;;4.83;;
12369;SDS011;6249;52.128;9.986;2023-03-21T17:58:09;14.10;;;5.00;;
12369;SDS011;6249;52.128;9.986;2023-03-21T18:01:32;12.47;;;5.27;;
12369;SDS011;6249;52.128;9.986;2023-03-21T18:04:55;10.97;;;6.70;;
12369;SDS011;6249;52.128;9.986;2023-03-21T18:08:16;11.20;;;6.40;;
12369;SDS011;6249;52.128;9.986;2023-03-21T18:11:37;12.50;;;6.10;;
12369;SDS011;6249;52.128;9.986;2023-03-21T18:14:58;13.40;;;5.90;;
12369;SDS011;6249;52.128;9.986;2023-03-21T18:18:19;16.20;;;7.57;;
12369;SDS011;6249;52.128;9.986;2023-03-21T18:21:42;12.30;;;7.60;;
12369;SDS011;6249;52.128;9.986;2023-03-21T18:25:05;16.77;;;7.70;;
12369;SDS011;6249;52.128;9.986;2023-03-21T18:28:29;16.00;;;8.73;;
12369;SDS011;6249;52.128;9.986;2023-03-21T18:31:52;18.80;;;8.17;;
12369;SDS011;6249;52.128;9.986;2023-03-21T18:35:13;15.50;;;6.93;;
12369;SDS011;6249;52.128;9.986;2023-03-21T18:38:35;11.20;;;6.43;;
12369;SDS011;6249;52.128;9.986;2023-03-21T18:41:56;8.70;;;5.70;;
12369;SDS011;6249;52.128;9.986;2023-03-21T18:45:20;11.37;;;4.60;;
12369;SDS011;6249;52.128;9.986;2023-03-21T18:48:42;14.27;;;5.50;;
12369;SDS011;6249;52.128;9.986;2023-03-21T18:52:05;8.47;;;5.07;;
12369;SDS011;6249;52.128;9.986;2023-03-21T18:55:31;13.53;;;5.70;;
12369;SDS011;6249;52.128;9.986;2023-03-21T18:58:54;18.03;;;5.30;;
12369;SDS011;6249;52.128;9.986;2023-03-21T19:02:15;9.47;;;5.57;;
12369;SDS011;6249;52.128;9.986;2023-03-21T19:05:36;9.60;;;5.40;;
12369;SDS011;6249;52.128;9.986;2023-03-21T19:09:07;11.40;;;5.37;;
12369;SDS011;6249;52.128;9.986;2023-03-21T19:12:28;9.53;;;6.37;;
12369;SDS011;6249;52.128;9.986;2023-03-21T19:15:49;9.87;;;5.27;;
12369;SDS011;6249;52.128;9.986;2023-03-21T19:19:12;10.33;;;5.90;;
12369;SDS011;6249;52.128;9.986;2023-03-21T19:22:41;9.80;;;5.63;;
12369;SDS011;6249;52.128;9.986;2023-03-21T19:26:02;13.80;;;6.70;;
12369;SDS011;6249;52.128;9.986;2023-03-21T19:29:23;11.20;;;6.03;;
12369;SDS011;6249;52.128;9.986;2023-03-21T19:32:44;13.03;;;6.67;;
12369;SDS011;6249;52.128;9.986;2023-03-21T19:36:07;9.13;;;5.53;;
12369;SDS011;6249;52.128;9.986;2023-03-21T19:39:31;7.93;;;4.80;;
12369;SDS011;6249;52.128;9.986;2023-03-21T19:42:54;8.97;;;5.60;;
12369;SDS011;6249;52.128;9.986;2023-03-21T19:46:15;9.93;;;5.53;;
12369;SDS011;6249;52.128;9.986;2023-03-21T19:49:39;8.97;;;5.17;;
12369;SDS011;6249;52.128;9.986;2023-03-21T19:53:03;8.10;;;5.10;;
12369;SDS011;6249;52.128;9.986;2023-03-21T19:56:23;14.50;;;7.40;;
12369;SDS011;6249;52.128;9.986;2023-03-21T19:59:46;12.90;;;6.27;;
12369;SDS011;6249;52.128;9.986;2023-03-21T20:03:13;7.33;;;5.07;;
12369;SDS011;6249;52.128;9.986;2023-03-21T20:06:35;7.90;;;5.37;;
12369;SDS011;6249;52.128;9.986;2023-03-21T20:09:59;11.40;;;5.83;;
12369;SDS011;6249;52.128;9.986;2023-03-21T20:13:20;10.33;;;5.23;;
12369;SDS011;6249;52.128;9.986;2023-03-21T20:16:43;9.67;;;4.90;;
12369;SDS011;6249;52.128;9.986;2023-03-21T20:20:06;7.33;;;4.40;;
12369;SDS011;6249;52.128;9.986;2023-03-21T20:23:32;7.23;;;3.80;;
12369;SDS011;6249;52.128;9.986;2023-03-21T20:26:54;8.10;;;4.40;;
12369;SDS011;6249;52.128;9.986;2023-03-21T20:30:16;14.03;;;5.00;;
12369;SDS011;6249;52.128;9.986;2023-03-21T20:33:37;9.77;;;4.63;;
12369;SDS011;6249;52.128;9.986;2023-03-21T20:36:58;7.83;;;4.40;;
12369;SDS011;6249;52.128;9.986;2023-03-21T20:40:23;9.87;;;4.80;;
12369;SDS011;6249;52.128;9.986;2023-03-21T20:43:43;10.20;;;5.20;;
12369;SDS011;6249;52.128;9.986;2023-03-21T20:47:04;12.97;;;5.70;;
12369;SDS011;6249;52.128;9.986;2023-03-21T20:50:30;9.57;;;5.27;;
12369;SDS011;6249;52.128;9.986;2023-03-21T20:53:54;11.13;;;5.50;;
12369;SDS011;6249;52.128;9.986;2023-03-21T20:57:15;10.03;;;4.70;;
12369;SDS011;6249;52.128;9.986;2023-03-21T21:00:36;9.40;;;5.20;;
12369;SDS011;6249;52.128;9.986;2023-03-21T21:03:58;11.83;;;5.80;;
12369;SDS011;6249;52.128;9.986;2023-03-21T21:07:21;9.13;;;4.80;;
12369;SDS011;6249;52.128;9.986;2023-03-21T21:10:42;11.77;;;5.30;;
12369;SDS011;6249;52.128;9.986;2023-03-21T21:14:04;9.17;;;4.83;;
12369;SDS011;6249;52.128;9.986;2023-03-21T21:17:26;14.87;;;5.57;;
12369;SDS011;6249;52.128;9.986;2023-03-21T21:20:56;11.50;;;4.80;;
12369;SDS011;6249;52.128;9.986;2023-03-21T21:24:24;6.90;;;4.57;;
12369;SDS011;6249;52.128;9.986;2023-03-21T21:27:44;9.43;;;4.90;;
12369;SDS011;6249;52.128;9.986;2023-03-21T21:31:09;11.83;;;5.90;;
12369;SDS011;6249;52.128;9.986;2023-03-21T21:34:35;11.63;;;5.27;;
12369;SDS011;6249;52.128;9.986;2023-03-21T21:37:56;13.17;;;5.47;;
12369;SDS011;6249;52.128;9.986;2023-03-21T21:41:18;13.27;;;5.23;;
12369;SDS011;6249;52.128;9.986;2023-03-21T21:44:42;20.03;;;6.17;;
12369;SDS011;6249;52.128;9.986;2023-03-21T21:48:06;10.93;;;5.30;;
12369;SDS011;6249;52.128;9.986;2023-03-21T21:51:30;16.57;;;5.87;;
12369;SDS011;6249;52.128;9.986;2023-03-21T21:54:53;24.70;;;10.43;;
12369;SDS011;6249;52.128;9.986;2023-03-21T21:58:14;15.70;;;7.90;;
12369;SDS011;6249;52.128;9.986;2023-03-21T22:01:37;18.57;;;8.80;;
12369;SDS011;6249;52.128;9.986;2023-03-21T22:04:58;19.50;;;9.00;;
12369;SDS011;6249;52.128;9.986;2023-03-21T22:08:18;17.17;;;8.60;;
12369;SDS011;6249;52.128;9.986;2023-03-21T22:11:40;16.03;;;8.97;;
12369;SDS011;6249;52.128;9.986;2023-03-21T22:15:00;14.10;;;8.50;;